Portada
METAR-TAF:

METAR-TAF

Aeroports :

Wellington, Nova Zelanda

latitud: 41-20S, longitud: 174-48E, altitud: 12 m

Observació

L'informe es va fer fa 34 minuts, a les 03:00 UTC
Vent 9 kt del Sud
Temperatura 13°C
Humitat 82%
Pressió 1016 hPa
Visibilitat 10 km o més

METAR: NZWN 240300Z AUTO 19009KT 9999 SCT014/// 13/10 Q1016

Hora: 15:34 (03:34 UTC)

Pronòstic

L'informe es va fer fa 1 hora i 26 minuts, a les 02:08 UTC
Pronòstic vàlid del 24 a les 03 UTC al 25 a les 06 UTC
Vent 15 kt del Sud
Visibilitat 10 km o més
Núvols disperses a una alçada de 3500 ft
Evolucionant progressivament
l' 24 a les 03 UTC al 24 a les 05 UTC
Cel ennuvolat a una alçada de 1500 ft
Temporalment
l' 25 a les 00 UTC al 25 a les 06 UTC
Visibilitat: 5000 m
Cel ennuvolat a una alçada de 800 ft
pluja,

TAF: NZWN 240208Z 2403/2506 18015KT 9999 SCT035 BECMG 2403/2405 BKN015 TEMPO 2500/2506 5000 RA BKN008

Observacions i pronòstics meteorològics de més de 4000 aeroports (METAR i TAF).

Les estacions disponibles són els punts grocs i vermells al mapa.

Posi el ratolí al punt desitjat per veure el nom de l'estació.

Feu clic per veure les observacions i els pronòstics meteorològics.

Per canviar el mapa: feu clic els botons verds amb una creu de color negre per apropar; al botó verd amb un guió per allunyar la imatge; o en les fletxes verdes per a mapes adjacents.


METAR-TAF: